Time;durP1;ratioP1;P1;durP2;ratioP2;P2;SDS_P1;SDS_P2;PMS_P1;PMS_P2;Temp;Humidity;BMP_temperature;BMP_pressure;BME280_temperature;BME280_humidity;BME280_pressure;Samples;Min_cycle;Max_cycle;Signal;HPM_P1;HPM_P2
2022/07/04 00:00:59;;;;;;;;;;;;;;;24.30;55.16;99867.06;2059928;28;20745;-56
2022/07/04 00:02:00;;;;;;;;;;;;;;;24.31;55.13;99870.69;2061288;28;19924;-55
2022/07/04 00:03:00;;;;;;;;;;;;;;;24.30;55.25;99868.94;2061427;28;20255;-55
2022/07/04 00:04:00;;;;;;;;;;;;;;;24.30;55.13;99867.06;2063779;28;19970;-55
2022/07/04 00:05:01;;;;;;;;;;;;;;;24.31;55.21;99865.16;2060781;28;19924;-55
2022/07/04 00:06:01;;;;;;;;;;;;;;;24.30;55.14;99861.56;2060973;28;20628;-56
2022/07/04 00:07:01;;;;;;;;;;;;;;;24.31;55.20;99865.16;2061831;28;19925;-56
2022/07/04 00:08:02;;;;;;;;;;;;;;;24.30;55.14;99872.59;2056189;28;19918;-56
2022/07/04 00:09:02;;;;;;;;;;;;;;;24.31;54.98;99873.44;2057491;28;20140;-56
2022/07/04 00:10:03;;;;;;;;;;;;;;;24.30;55.17;99878.09;2053464;28;20341;-55
2022/07/04 00:11:04;;;;;;;;;;;;;;;24.30;55.06;99872.59;2058847;28;20654;-55
2022/07/04 00:12:04;;;;;;;;;;;;;;;24.31;55.12;99879.78;2057117;28;19926;-56
2022/07/04 00:13:05;;;;;;;;;;;;;;;24.31;55.22;99877.03;2060819;28;19922;-57
2022/07/04 00:14:05;;;;;;;;;;;;;;;24.31;55.22;99874.28;2058449;28;19917;-55
2022/07/04 00:15:06;;;;;;;;;;;;;;;24.31;55.08;99874.28;2055399;28;19969;-55
2022/07/04 00:16:07;;;;;;;;;;;;;;;24.31;55.20;99873.44;2055175;28;19918;-55
2022/07/04 00:17:08;;;;;;;;;;;;;;;24.31;55.19;99874.28;2056289;28;20204;-56
2022/07/04 00:18:08;;;;;;;;;;;;;;;24.31;55.16;99874.28;2054678;28;20427;-55
2022/07/04 00:19:09;;;;;;;;;;;;;;;24.32;55.25;99880.63;2058893;28;19917;-56
2022/07/04 00:20:10;;;;;;;;;;;;;;;24.30;55.24;99878.09;2052881;28;19906;-56
2022/07/04 00:21:10;;;;;;;;;;;;;;;24.31;55.26;99882.53;2052303;28;19922;-56
2022/07/04 00:22:10;;;;;;;;;;;;;;;24.32;55.17;99881.47;2061567;28;19913;-56
2022/07/04 00:23:11;;;;;;;;;;;;;;;24.31;55.12;99879.78;2053143;28;19925;-56
2022/07/04 00:24:11;;;;;;;;;;;;;;;24.31;55.09;99874.28;2059019;28;19940;-55
2022/07/04 00:25:11;;;;;;;;;;;;;;;24.31;55.21;99874.28;2061057;28;20450;-55
2022/07/04 00:26:12;;;;;;;;;;;;;;;24.31;55.05;99874.28;2054821;28;20273;-56
2022/07/04 00:27:12;;;;;;;;;;;;;;;24.31;55.22;99877.03;2062054;28;20253;-56
2022/07/04 00:28:12;;;;;;;;;;;;;;;24.31;54.91;99874.28;2056867;28;20299;-55
2022/07/04 00:29:13;;;;;;;;;;;;;;;24.31;55.22;99874.28;2059531;28;19917;-55
2022/07/04 00:30:14;;;;;;;;;;;;;;;24.31;55.20;99868.78;2061357;28;20445;-56
2022/07/04 00:31:14;;;;;;;;;;;;;;;24.31;55.12;99871.53;2061696;28;20283;-55
2022/07/04 00:32:14;;;;;;;;;;;;;;;24.31;55.22;99868.78;2061195;28;19918;-56
2022/07/04 00:33:16;;;;;;;;;;;;;;;24.31;55.22;99874.28;2058358;28;19918;-55
2022/07/04 00:34:16;;;;;;;;;;;;;;;24.31;55.18;99874.28;2061385;28;19926;-56
2022/07/04 00:35:16;;;;;;;;;;;;;;;24.31;55.16;99867.91;2061543;28;20179;-56
2022/07/04 00:36:17;;;;;;;;;;;;;;;24.31;55.10;99867.91;2058476;28;19978;-56
2022/07/04 00:37:17;;;;;;;;;;;;;;;24.31;55.16;99859.66;2060596;28;19921;-55
2022/07/04 00:38:17;;;;;;;;;;;;;;;24.31;55.13;99863.25;2058827;28;19931;-57
2022/07/04 00:39:18;;;;;;;;;;;;;;;24.30;55.32;99872.59;2058506;28;20426;-55
2022/07/04 00:40:18;;;;;;;;;;;;;;;24.31;55.16;99862.41;2061851;28;19940;-56
2022/07/04 00:41:18;;;;;;;;;;;;;;;24.30;55.10;99871.69;2058272;28;19932;-55
2022/07/04 00:42:19;;;;;;;;;;;;;;;24.30;55.27;99856.06;2059084;28;20287;-56
2022/07/04 00:43:23;;;;;;;;;;;;;;;24.31;55.26;99857.75;2059130;28;20236;-55
2022/07/04 00:44:23;;;;;;;;;;;;;;;24.29;55.25;99848.81;2052881;28;19914;-55
2022/07/04 00:45:23;;;;;;;;;;;;;;;24.31;55.19;99841.22;2052971;28;19918;-55
2022/07/04 00:46:24;;;;;;;;;;;;;;;24.31;55.26;99852.25;2051997;28;19918;-55
2022/07/04 00:47:24;;;;;;;;;;;;;;;24.30;55.26;99849.66;2053006;28;19918;-55
2022/07/04 00:48:25;;;;;;;;;;;;;;;24.30;55.04;99861.56;2050725;28;20055;-55
2022/07/04 00:49:26;;;;;;;;;;;;;;;24.30;55.27;99856.06;2061526;28;19956;-55
2022/07/04 00:50:26;;;;;;;;;;;;;;;24.30;55.31;99856.06;2053665;28;19988;-56
2022/07/04 00:51:26;;;;;;;;;;;;;;;24.31;55.28;99862.41;2063653;28;19913;-55
2022/07/04 00:52:27;;;;;;;;;;;;;;;24.31;55.17;99862.41;2067681;28;20078;-55
2022/07/04 00:53:27;;;;;;;;;;;;;;;24.30;55.27;99858.81;2059518;28;20128;-55
2022/07/04 00:54:29;;;;;;;;;;;;;;;24.30;55.26;99853.31;2062109;28;19925;-56
2022/07/04 00:55:30;;;;;;;;;;;;;;;24.30;55.21;99856.06;2047490;28;19993;-55
2022/07/04 00:56:30;;;;;;;;;;;;;;;24.31;55.20;99851.41;2053803;28;20361;-56
2022/07/04 00:57:30;;;;;;;;;;;;;;;24.30;55.19;99856.06;2060655;28;20709;-55
2022/07/04 00:58:31;;;;;;;;;;;;;;;24.31;55.21;99857.75;2060303;28;20307;-56
2022/07/04 00:59:31;;;;;;;;;;;;;;;24.31;55.12;99851.41;2060918;28;19922;-56
2022/07/04 01:00:31;;;;;;;;;;;;;;;24.31;55.26;99856.91;2062525;28;19917;-56
2022/07/04 01:01:32;;;;;;;;;;;;;;;24.30;55.36;99850.53;2060679;28;20155;-55
2022/07/04 01:02:32;;;;;;;;;;;;;;;24.31;55.27;99856.91;2060139;28;20423;-56
2022/07/04 01:03:32;;;;;;;;;;;;;;;24.31;55.11;99856.91;2061632;28;20154;-56
2022/07/04 01:04:33;;;;;;;;;;;;;;;24.31;55.31;99855.00;2061663;28;20349;-55
2022/07/04 01:05:33;;;;;;;;;;;;;;;24.30;55.28;99850.53;2060245;28;19979;-56
2022/07/04 01:06:34;;;;;;;;;;;;;;;24.30;55.41;99858.81;2061365;28;20442;-55
2022/07/04 01:07:35;;;;;;;;;;;;;;;24.30;55.31;99853.31;2060563;28;20016;-55
2022/07/04 01:08:37;;;;;;;;;;;;;;;24.30;55.27;99858.81;2059306;28;19956;-55
2022/07/04 01:09:37;;;;;;;;;;;;;;;24.31;55.29;99857.75;2061618;28;19917;-56
2022/07/04 01:10:37;;;;;;;;;;;;;;;24.31;55.31;99860.50;2059468;28;19944;-55
2022/07/04 01:11:38;;;;;;;;;;;;;;;24.31;55.14;99856.91;2059044;28;19918;-56
2022/07/04 01:12:38;;;;;;;;;;;;;;;24.31;55.32;99851.41;2060560;28;19975;-56
2022/07/04 01:13:41;;;;;;;;;;;;;;;24.30;55.26;99847.78;2059567;28;19910;-55
2022/07/04 01:14:42;;;;;;;;;;;;;;;24.30;55.35;99847.78;2060800;28;19920;-57
2022/07/04 01:15:42;;;;;;;;;;;;;;;24.29;55.36;99843.31;2066530;28;20004;-55
2022/07/04 01:16:42;;;;;;;;;;;;;;;24.30;55.26;99849.66;2064558;28;20271;-55
2022/07/04 01:17:43;;;;;;;;;;;;;;;24.29;55.27;99851.56;2061287;28;20756;-55
2022/07/04 01:18:43;;;;;;;;;;;;;;;24.29;55.33;99846.06;2051523;28;20368;-55
2022/07/04 01:19:44;;;;;;;;;;;;;;;24.29;55.30;99846.06;2054974;28;20356;-55
2022/07/04 01:20:44;;;;;;;;;;;;;;;24.29;55.23;99837.81;2061346;28;20056;-55
2022/07/04 01:21:44;;;;;;;;;;;;;;;24.30;55.27;99844.16;2058918;28;19953;-55
2022/07/04 01:22:45;;;;;;;;;;;;;;;24.29;55.23;99848.81;2057936;28;19925;-55
2022/07/04 01:23:45;;;;;;;;;;;;;;;24.28;55.25;99841.63;2062599;28;20350;-56
2022/07/04 01:24:45;;;;;;;;;;;;;;;24.28;55.31;99847.13;2059796;28;19921;-55
2022/07/04 01:25:46;;;;;;;;;;;;;;;24.29;55.28;99846.06;2061081;28;19921;-57
2022/07/04 01:26:46;;;;;;;;;;;;;;;24.29;55.36;99843.31;2058023;28;20110;-57
2022/07/04 01:27:46;;;;;;;;;;;;;;;24.29;55.27;99837.81;2061452;28;21106;-55
2022/07/04 01:28:46;;;;;;;;;;;;;;;24.29;55.22;99839.72;2060990;28;20273;-55
2022/07/04 01:29:47;;;;;;;;;;;;;;;24.28;55.29;99841.63;2058626;28;19952;-55
2022/07/04 01:30:48;;;;;;;;;;;;;;;24.29;55.29;99847.97;2060377;28;20019;-55
2022/07/04 01:31:48;;;;;;;;;;;;;;;24.28;55.40;99852.63;2058601;28;20596;-55
2022/07/04 01:32:48;;;;;;;;;;;;;;;24.28;55.31;99863.66;2056132;28;19918;-55
2022/07/04 01:33:48;;;;;;;;;;;;;;;24.29;55.28;99862.59;2060573;28;20283;-55
2022/07/04 01:34:49;;;;;;;;;;;;;;;24.29;55.30;99868.09;2061906;28;19917;-56
2022/07/04 01:35:49;;;;;;;;;;;;;;;24.29;55.40;99873.59;2058375;28;20298;-56
2022/07/04 01:36:49;;;;;;;;;;;;;;;24.29;55.46;99865.34;2058667;28;19939;-55
2022/07/04 01:37:50;;;;;;;;;;;;;;;24.29;55.44;99865.34;2062188;28;19929;-55
2022/07/04 01:38:50;;;;;;;;;;;;;;;24.29;55.36;99864.50;2061342;28;19917;-56
2022/07/04 01:39:50;;;;;;;;;;;;;;;24.29;55.33;99865.34;2060470;28;19917;-55
2022/07/04 01:40:51;;;;;;;;;;;;;;;24.29;55.31;99864.50;2060112;28;19917;-55
2022/07/04 01:41:51;;;;;;;;;;;;;;;24.29;55.34;99859.00;2061360;28;19924;-55
2022/07/04 01:42:51;;;;;;;;;;;;;;;24.29;55.40;99865.34;2060225;28;19971;-55
2022/07/04 01:43:51;;;;;;;;;;;;;;;24.29;55.23;99854.31;2057872;28;19967;-55
2022/07/04 01:44:52;;;;;;;;;;;;;;;24.29;55.43;99859.84;2057493;28;19918;-56
2022/07/04 01:45:52;;;;;;;;;;;;;;;24.28;55.37;99855.38;2060539;28;19951;-55
2022/07/04 01:46:53;;;;;;;;;;;;;;;24.30;55.30;99857.94;2059428;28;19917;-56
2022/07/04 01:47:54;;;;;;;;;;;;;;;24.29;55.38;99859.84;2056591;28;19922;-55
2022/07/04 01:48:54;;;;;;;;;;;;;;;24.28;55.37;99863.66;2061259;28;20578;-55
2022/07/04 01:49:55;;;;;;;;;;;;;;;24.29;55.37;99865.34;2062259;28;19919;-56
2022/07/04 01:50:55;;;;;;;;;;;;;;;24.29;55.37;99870.00;2059377;28;19917;-55
2022/07/04 01:51:55;;;;;;;;;;;;;;;24.28;55.42;99860.91;2064063;28;19921;-55
2022/07/04 01:52:56;;;;;;;;;;;;;;;24.28;55.48;99869.16;2051976;28;20406;-55
2022/07/04 01:53:56;;;;;;;;;;;;;;;24.29;55.52;99864.50;2045027;28;20051;-55
2022/07/04 01:54:56;;;;;;;;;;;;;;;24.28;55.50;99866.41;2053532;28;19918;-56
2022/07/04 01:55:56;;;;;;;;;;;;;;;24.29;55.43;99870.00;2051006;28;19925;-55
2022/07/04 01:56:57;;;;;;;;;;;;;;;24.28;55.56;99857.28;2052403;28;20392;-56
2022/07/04 01:57:57;;;;;;;;;;;;;;;24.28;55.48;99874.66;2059872;28;20466;-56
2022/07/04 01:58:59;;;;;;;;;;;;;;;24.28;55.50;99869.16;2059312;28;20322;-55
2022/07/04 02:01:30;;;;;;;;;;;;;;;24.27;55.55;99872.94;2059415;28;19917;-55
2022/07/04 02:02:30;;;;;;;;;;;;;;;24.28;55.59;99873.81;2058888;28;19917;-54
2022/07/04 02:03:30;;;;;;;;;;;;;;;24.28;55.57;99874.66;2056184;28;19937;-55
2022/07/04 02:04:31;;;;;;;;;;;;;;;24.28;55.58;99879.31;2059314;28;20139;-55
2022/07/04 02:05:32;;;;;;;;;;;;;;;24.28;55.51;99884.84;2060464;28;20005;-55
2022/07/04 02:06:32;;;;;;;;;;;;;;;24.28;55.61;99882.94;2055717;28;19961;-56
2022/07/04 02:07:33;;;;;;;;;;;;;;;24.27;55.58;99883.97;2063489;28;19984;-55
2022/07/04 02:09:52;;;;;;;;;;;;;;;24.27;55.67;99883.97;2055975;28;20362;-55
2022/07/04 02:10:52;;;;;;;;;;;;;;;24.28;55.66;99888.44;2060809;28;20028;-55
2022/07/04 02:13:11;;;;;;;;;;;;;;;24.27;55.68;99881.19;2056192;28;19917;-55
2022/07/04 02:14:11;;;;;;;;;;;;;;;24.27;55.57;99877.59;2061305;28;19944;-56
2022/07/04 02:15:12;;;;;;;;;;;;;;;24.26;55.68;99876.75;2061298;28;19925;-55
2022/07/04 02:16:13;;;;;;;;;;;;;;;24.26;55.53;99871.25;2058742;28;20024;-56
2022/07/04 02:17:13;;;;;;;;;;;;;;;24.27;55.43;99872.94;2062661;28;20330;-56
2022/07/04 02:18:14;;;;;;;;;;;;;;;24.27;55.52;99875.69;2062803;28;20357;-56
2022/07/04 02:19:14;;;;;;;;;;;;;;;24.27;55.52;99872.94;2060530;28;19976;-56
2022/07/04 02:20:15;;;;;;;;;;;;;;;24.27;55.49;99878.44;2058790;28;19937;-56
2022/07/04 02:21:15;;;;;;;;;;;;;;;24.28;55.64;99879.31;2063015;28;20047;-56
2022/07/04 02:22:15;;;;;;;;;;;;;;;24.27;55.61;99880.34;2062038;28;20435;-56
2022/07/04 02:23:16;;;;;;;;;;;;;;;24.27;55.61;99883.97;2060975;28;19922;-54
2022/07/04 02:24:16;;;;;;;;;;;;;;;24.28;55.61;99884.84;2060430;28;20316;-56
2022/07/04 02:25:16;;;;;;;;;;;;;;;24.27;55.57;99886.72;2059676;28;19936;-55
2022/07/04 02:26:17;;;;;;;;;;;;;;;24.28;55.50;99888.44;2061040;28;20024;-55
2022/07/04 02:27:17;;;;;;;;;;;;;;;24.28;55.51;99890.34;2060145;28;19928;-56
2022/07/04 02:28:18;;;;;;;;;;;;;;;24.27;55.68;99894.97;2057499;28;19917;-55
2022/07/04 02:29:18;;;;;;;;;;;;;;;24.27;55.61;99889.47;2060661;28;20161;-55
2022/07/04 02:30:18;;;;;;;;;;;;;;;24.27;55.57;99889.47;2056183;28;20283;-55
2022/07/04 02:31:19;;;;;;;;;;;;;;;24.27;55.58;99897.72;2052045;28;20041;-55
2022/07/04 02:32:19;;;;;;;;;;;;;;;24.27;55.71;99900.47;2051672;28;20319;-56
2022/07/04 02:33:19;;;;;;;;;;;;;;;24.27;55.65;99903.22;2055933;28;19916;-55
2022/07/04 02:34:20;;;;;;;;;;;;;;;24.27;55.73;99899.63;2060313;28;19918;-56
2022/07/04 02:35:20;;;;;;;;;;;;;;;24.27;55.71;99900.47;2060401;28;19909;-55
2022/07/04 02:36:20;;;;;;;;;;;;;;;24.26;55.70;99898.78;2056723;28;19968;-56
2022/07/04 02:37:20;;;;;;;;;;;;;;;24.27;55.71;99906.00;2060618;28;19929;-56
2022/07/04 02:38:21;;;;;;;;;;;;;;;24.27;55.70;99905.13;2056754;28;20308;-55
2022/07/04 02:39:21;;;;;;;;;;;;;;;24.27;55.81;99900.47;2057731;28;20910;-55
2022/07/04 02:40:21;;;;;;;;;;;;;;;24.27;55.80;99907.91;2059311;28;19947;-56
2022/07/04 02:41:22;;;;;;;;;;;;;;;24.27;55.78;99906.00;2058952;28;19918;-55
2022/07/04 02:42:22;;;;;;;;;;;;;;;24.26;55.70;99909.81;2060257;28;19996;-55
2022/07/04 02:43:22;;;;;;;;;;;;;;;24.26;55.78;99909.81;2057134;28;20333;-55
2022/07/04 02:44:23;;;;;;;;;;;;;;;24.26;55.91;99914.47;2057272;28;19924;-56
2022/07/04 02:45:23;;;;;;;;;;;;;;;24.25;55.86;99908.06;2060208;28;19961;-55
2022/07/04 02:46:23;;;;;;;;;;;;;;;24.25;55.93;99905.31;2059233;28;19922;-56
2022/07/04 02:47:24;;;;;;;;;;;;;;;24.26;55.86;99915.31;2060086;28;19917;-55
2022/07/04 02:48:24;;;;;;;;;;;;;;;24.25;56.04;99913.56;2061134;28;19917;-56
2022/07/04 02:49:25;;;;;;;;;;;;;;;24.26;56.05;99906.19;2059691;28;19961;-55
2022/07/04 02:50:25;;;;;;;;;;;;;;;24.25;55.93;99904.47;2063348;28;20047;-55
2022/07/04 02:51:26;;;;;;;;;;;;;;;24.26;55.99;99897.94;2060767;28;19916;-55
2022/07/04 02:52:26;;;;;;;;;;;;;;;24.25;55.89;99902.56;2059307;28;20357;-55
2022/07/04 02:53:27;;;;;;;;;;;;;;;24.25;56.10;99907.22;2053232;28;19945;-56
2022/07/04 02:54:27;;;;;;;;;;;;;;;24.24;56.03;99897.25;2051172;28;19926;-55
2022/07/04 02:55:28;;;;;;;;;;;;;;;24.25;56.02;99904.47;2048720;28;20312;-55
2022/07/04 02:56:28;;;;;;;;;;;;;;;24.24;56.02;99900.88;2057765;28;20443;-56
2022/07/04 02:57:28;;;;;;;;;;;;;;;24.25;55.94;99902.56;2058913;28;19940;-56
2022/07/04 02:58:30;;;;;;;;;;;;;;;24.25;56.13;99902.56;2062476;28;19971;-56
2022/07/04 02:59:30;;;;;;;;;;;;;;;24.24;56.06;99911.88;2059207;28;19921;-55
2022/07/04 03:00:30;;;;;;;;;;;;;;;24.25;56.01;99901.72;2059925;28;19921;-56
2022/07/04 03:01:31;;;;;;;;;;;;;;;24.25;56.06;99902.56;2060941;28;19914;-55
2022/07/04 03:02:31;;;;;;;;;;;;;;;24.25;55.94;99902.56;2058961;28;19913;-55
2022/07/04 03:03:31;;;;;;;;;;;;;;;24.24;56.00;99900.88;2059915;28;19969;-55
2022/07/04 03:04:32;;;;;;;;;;;;;;;24.24;55.80;99900.88;2063173;28;19913;-55
2022/07/04 03:05:32;;;;;;;;;;;;;;;24.25;55.95;99901.72;2061439;28;20025;-55
2022/07/04 03:06:32;;;;;;;;;;;;;;;24.25;55.91;99905.31;2059725;28;19918;-56
2022/07/04 03:07:33;;;;;;;;;;;;;;;24.24;56.06;99909.13;2065704;28;19918;-56
2022/07/04 03:08:33;;;;;;;;;;;;;;;24.24;56.01;99917.41;2057772;28;19913;-56
2022/07/04 03:09:34;;;;;;;;;;;;;;;24.25;55.97;99913.56;2057707;28;19928;-56
2022/07/04 03:10:34;;;;;;;;;;;;;;;24.25;56.11;99918.25;2060590;28;20197;-56
2022/07/04 03:11:34;;;;;;;;;;;;;;;24.25;56.01;99916.34;2056807;28;20355;-55
2022/07/04 03:12:34;;;;;;;;;;;;;;;24.24;56.13;99922.91;2060862;28;19944;-56
2022/07/04 03:13:35;;;;;;;;;;;;;;;24.24;56.08;99920.16;2059177;28;20367;-56
2022/07/04 03:14:36;;;;;;;;;;;;;;;24.24;56.23;99922.06;2059785;28;20209;-56
2022/07/04 03:15:36;;;;;;;;;;;;;;;24.24;56.13;99942.19;2058126;28;19925;-55
2022/07/04 03:16:36;;;;;;;;;;;;;;;24.24;56.23;99939.44;2058151;28;19921;-56
2022/07/04 03:17:37;;;;;;;;;;;;;;;24.24;56.08;99938.56;2059735;28;19922;-55
2022/07/04 03:18:37;;;;;;;;;;;;;;;24.24;56.09;99936.66;2056713;28;20359;-55
2022/07/04 03:19:38;;;;;;;;;;;;;;;24.24;56.11;99944.09;2059225;28;20378;-55
2022/07/04 03:20:38;;;;;;;;;;;;;;;24.24;56.27;99933.06;2060475;28;19943;-56
2022/07/04 03:21:38;;;;;;;;;;;;;;;24.24;56.31;99944.94;2059314;28;20060;-56
2022/07/04 03:22:39;;;;;;;;;;;;;;;24.24;56.29;99950.44;2060831;28;19964;-55
2022/07/04 03:23:39;;;;;;;;;;;;;;;24.23;56.34;99946.00;2059149;28;19918;-56
2022/07/04 03:24:39;;;;;;;;;;;;;;;24.24;56.24;99944.09;2059267;28;19917;-55
2022/07/04 03:25:42;;;;;;;;;;;;;;;24.24;56.16;99946.84;2060606;28;19917;-56
2022/07/04 03:26:43;;;;;;;;;;;;;;;24.24;56.39;99944.94;2057554;28;20020;-55
2022/07/04 03:27:43;;;;;;;;;;;;;;;24.23;56.34;99936.84;2061021;28;19932;-55
2022/07/04 03:28:44;;;;;;;;;;;;;;;24.23;56.35;99936.84;2057754;28;19961;-56
2022/07/04 03:29:44;;;;;;;;;;;;;;;24.22;56.26;99941.50;2058602;28;19969;-55
2022/07/04 03:30:45;;;;;;;;;;;;;;;24.23;56.34;99943.22;2061077;28;20083;-56
2022/07/04 03:31:45;;;;;;;;;;;;;;;24.22;56.48;99947.00;2059235;28;20012;-55
2022/07/04 03:32:45;;;;;;;;;;;;;;;24.22;56.21;99952.53;2050680;28;19913;-55
2022/07/04 03:33:46;;;;;;;;;;;;;;;24.22;56.28;99952.53;2051772;28;19972;-55
2022/07/04 03:34:46;;;;;;;;;;;;;;;24.22;56.32;99955.28;2053731;28;19960;-55
2022/07/04 03:35:47;;;;;;;;;;;;;;;24.23;56.24;99942.34;2053452;28;20351;-54
2022/07/04 03:36:47;;;;;;;;;;;;;;;24.23;56.25;99943.22;2060722;28;19921;-55
2022/07/04 03:37:47;;;;;;;;;;;;;;;24.23;56.23;99936.84;2064934;28;20321;-56
2022/07/04 03:38:48;;;;;;;;;;;;;;;24.22;56.18;99940.66;2060587;28;19968;-56
2022/07/04 03:39:48;;;;;;;;;;;;;;;24.22;56.13;99941.50;2058122;28;19969;-55
2022/07/04 03:40:49;;;;;;;;;;;;;;;24.23;56.27;99954.25;2058478;28;19921;-56
2022/07/04 03:41:49;;;;;;;;;;;;;;;24.22;56.23;99952.53;2056561;28;20758;-55
2022/07/04 03:42:49;;;;;;;;;;;;;;;24.23;56.25;99959.75;2059566;28;20355;-55
2022/07/04 03:43:49;;;;;;;;;;;;;;;24.23;56.34;99961.63;2061496;28;19957;-55
2022/07/04 03:44:50;;;;;;;;;;;;;;;24.22;56.28;99966.28;2055711;28;19909;-56
2022/07/04 03:45:50;;;;;;;;;;;;;;;24.22;56.25;99960.78;2059351;28;20496;-56
2022/07/04 03:46:50;;;;;;;;;;;;;;;24.23;56.37;99958.88;2058836;28;20536;-55
2022/07/04 03:47:51;;;;;;;;;;;;;;;24.23;56.37;99962.50;2057568;28;20166;-55
2022/07/04 03:48:51;;;;;;;;;;;;;;;24.22;56.39;99960.78;2062628;28;19945;-55
2022/07/04 03:49:51;;;;;;;;;;;;;;;24.23;56.27;99973.53;2056254;28;20114;-55
2022/07/04 03:50:51;;;;;;;;;;;;;;;24.22;56.40;99974.56;2060381;28;19913;-55
2022/07/04 03:51:52;;;;;;;;;;;;;;;24.23;56.42;99983.66;2063843;28;19921;-56
2022/07/04 03:52:52;;;;;;;;;;;;;;;24.22;56.42;99979.22;2055764;28;20696;-56
2022/07/04 03:53:52;;;;;;;;;;;;;;;24.23;56.45;99978.16;2058349;28;20369;-55
2022/07/04 03:54:53;;;;;;;;;;;;;;;24.23;56.43;99976.28;2059550;28;19917;-57
2022/07/04 03:55:53;;;;;;;;;;;;;;;24.22;56.46;99977.31;2059274;28;20399;-55
2022/07/04 03:56:54;;;;;;;;;;;;;;;24.22;56.48;99971.81;2059056;28;19917;-55
2022/07/04 03:57:55;;;;;;;;;;;;;;;24.22;56.46;99982.81;2049750;28;19922;-55
2022/07/04 03:58:56;;;;;;;;;;;;;;;24.21;56.45;99972.84;2055125;28;20040;-55
2022/07/04 03:59:56;;;;;;;;;;;;;;;24.21;56.48;99972.84;2065425;28;20008;-56
2022/07/04 04:00:58;;;;;;;;;;;;;;;24.22;56.52;99970.94;2055434;28;19918;-55
2022/07/04 04:01:58;;;;;;;;;;;;;;;24.22;56.61;99974.56;2059456;28;20212;-56
2022/07/04 04:02:58;;;;;;;;;;;;;;;24.22;56.63;99968.19;2058721;28;20001;-55
2022/07/04 04:05:27;;;;;;;;;;;;;;;24.21;56.52;99967.34;2058368;28;20263;-55
2022/07/04 04:06:28;;;;;;;;;;;;;;;24.20;56.48;99965.63;2058755;28;19924;-55
2022/07/04 04:07:28;;;;;;;;;;;;;;;24.19;56.51;99972.19;2060133;28;19924;-55
2022/07/04 04:08:28;;;;;;;;;;;;;;;24.20;56.64;99968.38;2052402;28;20224;-56
2022/07/04 04:09:29;;;;;;;;;;;;;;;24.20;56.52;99971.13;2058743;28;20327;-55
2022/07/04 04:10:31;;;;;;;;;;;;;;;24.20;56.49;99971.13;2058387;28;19918;-56
2022/07/04 04:11:31;;;;;;;;;;;;;;;24.20;56.50;99965.63;2053894;28;19922;-55
2022/07/04 04:12:32;;;;;;;;;;;;;;;24.20;56.49;99971.13;2051865;28;20000;-55
2022/07/04 04:13:32;;;;;;;;;;;;;;;24.20;56.59;99982.16;2059082;28;20378;-56
2022/07/04 04:14:32;;;;;;;;;;;;;;;24.20;56.49;99987.66;2059774;28;19918;-56
2022/07/04 04:15:33;;;;;;;;;;;;;;;24.21;56.43;99986.63;2059730;28;20186;-55
2022/07/04 04:16:33;;;;;;;;;;;;;;;24.20;56.43;99989.56;2057592;28;20398;-55
2022/07/04 04:17:33;;;;;;;;;;;;;;;24.20;56.35;99993.16;2060463;28;19925;-55
2022/07/04 04:18:34;;;;;;;;;;;;;;;24.21;56.39;99994.88;2058420;28;20160;-56
2022/07/04 04:19:34;;;;;;;;;;;;;;;24.21;56.36;100000.41;2058553;28;19980;-56
2022/07/04 04:20:34;;;;;;;;;;;;;;;24.22;56.26;99992.97;2059912;28;20332;-55
2022/07/04 04:21:35;;;;;;;;;;;;;;;24.21;56.20;99989.38;2058785;28;19922;-55
2022/07/04 04:22:36;;;;;;;;;;;;;;;24.21;56.29;99986.63;2060924;28;19917;-56
2022/07/04 04:23:36;;;;;;;;;;;;;;;24.20;56.36;99987.66;2059356;28;19910;-56
2022/07/04 04:24:36;;;;;;;;;;;;;;;24.20;56.32;99987.66;2058841;28;19961;-55
2022/07/04 04:25:37;;;;;;;;;;;;;;;24.20;56.30;99993.16;2046783;28;20372;-55
2022/07/04 04:26:37;;;;;;;;;;;;;;;24.20;56.35;99995.91;2046399;28;19957;-56
2022/07/04 04:27:37;;;;;;;;;;;;;;;24.20;56.44;99998.66;2060890;28;20011;-55
2022/07/04 04:28:37;;;;;;;;;;;;;;;24.20;56.39;99995.91;2054400;28;19925;-55
2022/07/04 04:29:38;;;;;;;;;;;;;;;24.20;56.40;99997.81;2053225;28;19944;-56
2022/07/04 04:30:38;;;;;;;;;;;;;;;24.21;56.64;100003.16;2060302;28;19964;-55
2022/07/04 04:31:38;;;;;;;;;;;;;;;24.19;56.58;100002.47;2058122;28;20335;-55
2022/07/04 04:32:39;;;;;;;;;;;;;;;24.19;56.66;100007.97;2061239;28;19971;-55
2022/07/04 04:33:40;;;;;;;;;;;;;;;24.20;56.48;100008.84;2058639;28;19925;-55
2022/07/04 04:34:41;;;;;;;;;;;;;;;24.19;56.56;100019.00;2052212;28;20028;-55
2022/07/04 04:35:41;;;;;;;;;;;;;;;24.20;56.59;100008.84;2043989;28;19914;-56
2022/07/04 04:36:41;;;;;;;;;;;;;;;24.20;56.50;100015.19;2057560;28;20549;-56
2022/07/04 04:37:41;;;;;;;;;;;;;;;24.18;56.65;100012.63;2059850;28;19948;-56
2022/07/04 04:38:42;;;;;;;;;;;;;;;24.18;56.63;100007.13;2051147;28;20255;-55
2022/07/04 04:39:42;;;;;;;;;;;;;;;24.19;56.53;100019.00;2050891;28;19918;-55
2022/07/04 04:40:43;;;;;;;;;;;;;;;24.18;56.64;100034.69;2060548;28;20331;-55
2022/07/04 04:41:43;;;;;;;;;;;;;;;24.18;56.55;100042.09;2059488;28;19917;-56
2022/07/04 04:42:43;;;;;;;;;;;;;;;24.17;56.55;100052.22;2058282;28;20299;-55
2022/07/04 04:43:44;;;;;;;;;;;;;;;24.18;56.54;100056.72;2052707;28;20243;-55
2022/07/04 04:44:44;;;;;;;;;;;;;;;24.18;56.54;100050.34;2057627;28;20339;-55
2022/07/04 04:45:44;;;;;;;;;;;;;;;24.18;56.56;100034.69;2060659;28;19921;-55
2022/07/04 04:46:45;;;;;;;;;;;;;;;24.18;56.44;100028.31;2061070;28;19921;-55
2022/07/04 04:47:46;;;;;;;;;;;;;;;24.17;56.54;100032.09;2059657;28;19956;-55
2022/07/04 04:48:46;;;;;;;;;;;;;;;24.17;56.59;100032.09;2061923;28;19924;-55
2022/07/04 04:49:47;;;;;;;;;;;;;;;24.16;56.59;100035.91;2060543;28;19960;-55
2022/07/04 04:50:47;;;;;;;;;;;;;;;24.17;56.58;100048.63;2061490;28;19915;-56
2022/07/04 04:51:48;;;;;;;;;;;;;;;24.16;56.53;100042.25;2061275;28;19952;-56
2022/07/04 04:52:48;;;;;;;;;;;;;;;24.16;56.53;100041.41;2060058;28;19929;-55
2022/07/04 04:53:48;;;;;;;;;;;;;;;24.16;56.41;100030.41;2061001;28;20332;-55
2022/07/04 04:54:48;;;;;;;;;;;;;;;24.16;56.43;100017.47;2061069;28;19917;-55
2022/07/04 04:55:49;;;;;;;;;;;;;;;24.16;56.46;100020.22;2061139;28;19925;-56
2022/07/04 04:56:49;;;;;;;;;;;;;;;24.16;56.35;100019.38;2061189;28;20720;-55
2022/07/04 04:57:50;;;;;;;;;;;;;;;24.16;56.40;100016.63;2056616;28;19922;-56
2022/07/04 04:58:50;;;;;;;;;;;;;;;24.17;56.27;100026.59;2056619;28;19913;-55
2022/07/04 04:59:50;;;;;;;;;;;;;;;24.16;56.25;100030.41;2062768;28;19918;-55
2022/07/04 05:00:51;;;;;;;;;;;;;;;24.16;56.39;100033.16;2060353;28;19976;-56
2022/07/04 05:01:51;;;;;;;;;;;;;;;24.16;56.40;100036.75;2058793;28;19928;-55
2022/07/04 05:02:51;;;;;;;;;;;;;;;24.17;56.27;100048.63;2058029;28;19925;-55
2022/07/04 05:03:51;;;;;;;;;;;;;;;24.17;56.26;100054.97;2061739;28;19917;-55
2022/07/04 05:04:52;;;;;;;;;;;;;;;24.17;56.21;100060.47;2057261;28;20396;-55
2022/07/04 05:05:52;;;;;;;;;;;;;;;24.18;56.22;100064.13;2061655;28;19917;-55
2022/07/04 05:06:53;;;;;;;;;;;;;;;24.17;56.22;100065.13;2058477;28;20478;-55
2022/07/04 05:07:53;;;;;;;;;;;;;;;24.18;56.07;100072.38;2061684;28;20162;-56
2022/07/04 05:08:54;;;;;;;;;;;;;;;24.17;56.17;100073.41;2058183;28;19917;-56
2022/07/04 05:09:58;;;;;;;;;;;;;;;24.17;56.15;100065.13;2059691;28;19925;-55
2022/07/04 05:10:59;;;;;;;;;;;;;;;24.17;56.08;100079.75;2062272;28;19980;-56
2022/07/04 05:11:59;;;;;;;;;;;;;;;24.17;56.25;100062.38;2060330;28;20302;-54
2022/07/04 05:13:00;;;;;;;;;;;;;;;24.17;56.24;100067.91;2054259;28;19936;-55
2022/07/04 05:14:01;;;;;;;;;;;;;;;24.16;56.13;100057.94;2054876;28;20472;-56
2022/07/04 05:15:01;;;;;;;;;;;;;;;24.17;56.07;100065.13;2059573;28;19968;-56
2022/07/04 05:16:02;;;;;;;;;;;;;;;24.17;56.23;100070.66;2062237;28;19917;-56
2022/07/04 05:17:02;;;;;;;;;;;;;;;24.16;56.18;100068.94;2060119;28;20373;-56
2022/07/04 05:18:03;;;;;;;;;;;;;;;24.16;56.10;100071.69;2059569;28;19933;-55
2022/07/04 05:19:03;;;;;;;;;;;;;;;24.17;56.13;100065.13;2057764;28;19924;-55
2022/07/04 05:20:03;;;;;;;;;;;;;;;24.16;56.22;100074.47;2049787;28;19965;-55